Buoy 56564

sailwx.info

Track history (hours):
 
Tides and Currents Weather Stations Pressure Air Temp Water Temp Dewpoint Dewpoint Depression Visibility Wind Speed Wind Dir Waves Ship Positions

Drifting buoy 56564

Last reported at 2016-Dec-08 21:40 UTC. Time now 2016-Dec-09 00:08 UTC.
Position S 27°11' E 088°14'.

Barometer 1018.2 mb
Water temperature 22.9 ° C

Date/timePositionNaut miles runAvg speedWind from/ knotsBaromVisibWave heightAir tempDewpointWater temp
2016-Dec-08 21:40S 27°11' E 088°14'5 1.2 1018.2 22.9
2016-Dec-08 17:40S 27°10' E 088°20'0 0.0 1019.7 23.6
2016-Dec-08 16:40S 27°10' E 088°20'1 0.8 1020.2 23.7
2016-Dec-08 15:40S 27°11' E 088°19'2 1.4 1020.2 23.9
2016-Dec-08 14:30S 27°11' E 088°21'0 0.0 1020.0 24.0
2016-Dec-08 12:40S 27°11' E 088°21'4 1.1 1019.2 24.2
2016-Dec-08 08:40S 27°08' E 088°25'0 0.0 1018.5 25.1
2016-Dec-08 06:40S 27°08' E 088°25'1 0.3 1019.1 24.3
2016-Dec-08 04:40S 27°08' E 088°25'3 1.1 1019.8 23.3
2016-Dec-08 01:40S 27°05' E 088°28'2 1.6 1019.9 22.8
2016-Dec-08 00:40S 27°04' E 088°29'1 0.2 1019.8 22.8
2016-Dec-07 21:40S 27°04' E 088°29'2 2.2 1018.8 22.9
2016-Dec-07 20:40S 27°04' E 088°32'2 1.0 1018.7 22.9
2016-Dec-07 18:40S 27°02' E 088°34'1 0.2 1019.5 23.0
2016-Dec-07 15:40S 27°02' E 088°33'1 0.8 1020.3 23.2
2016-Dec-07 14:40S 27°02' E 088°34'0 0.0 1020.0 23.3
2016-Dec-07 12:40S 27°02' E 088°34'1 0.5 1019.4 23.6
2016-Dec-07 11:30S 27°01' E 088°34'4 2.3 1019.0 23.7
2016-Dec-07 09:40S 26°57' E 088°34'1 0.3 1018.6 23.7
2016-Dec-07 07:40S 26°58' E 088°34'4 4.2 1019.3 23.4
2016-Dec-07 06:40S 26°53' E 088°34'2 0.3 1019.6 23.2
2016-Dec-06 22:40S 26°51' E 088°34'4 1.8 1019.5 22.8
2016-Dec-06 20:30S 26°47' E 088°32'2 1.3 1019.1 22.9
2016-Dec-06 18:40S 26°45' E 088°32'1 0.3 1019.8 22.9
2016-Dec-06 16:40S 26°44' E 088°32'0 0.0 1020.5 22.9
2016-Dec-06 15:40S 26°44' E 088°32'2 1.6 1020.3 23.0
2016-Dec-06 14:40S 26°43' E 088°31'0 0.0 1020.0 23.1
2016-Dec-06 13:40S 26°43' E 088°31'3 1.2 1019.6 23.1
2016-Dec-06 11:30S 26°41' E 088°30'2 1.9 1018.7 23.2
2016-Dec-06 10:40S 26°40' E 088°29'1 0.8 1018.4 23.2
2016-Dec-06 09:40S 26°39' E 088°28'8 1.3 1018.6 23.2
2016-Dec-06 03:40S 26°32' E 088°23'2 0.5 1020.9 22.9
2016-Dec-06 00:40S 26°31' E 088°22'10 1.3 1020.5 22.9
2016-Dec-05 16:40S 26°25' E 088°13'5 1.3 1021.7 23.2
2016-Dec-05 12:40S 26°22' E 088°08'2 2.1 1019.7 23.3
2016-Dec-05 11:40S 26°20' E 088°07'2 1.4 1019.2 23.3
2016-Dec-05 10:30S 26°19' E 088°06'1 1.3 1019.2 23.4
2016-Dec-05 09:40S 26°19' E 088°07'7 1.2 1019.3 23.4
2016-Dec-05 03:40S 26°14' E 088°01'3 1.1 1021.1 23.2
2016-Dec-05 00:40S 26°12' E 087°58'6 6.4 1020.4 23.2
2016-Dec-04 23:40S 26°07' E 087°53'0 0.0 1020.0 23.2
2016-Dec-04 20:40S 26°07' E 087°53'3 0.8 1019.4 23.3
2016-Dec-04 16:40S 26°05' E 087°51'2 1.6 1021.1 23.3
2016-Dec-04 15:40S 26°04' E 087°50'0 0.0 1021.0 23.3
2016-Dec-04 14:40S 26°04' E 087°50'1 0.8 1020.5 23.4
2016-Dec-04 13:40S 26°03' E 087°49'2 1.6 1019.9 23.4
2016-Dec-04 12:40S 26°02' E 087°48'4 1.2 1019.3 23.4
2016-Dec-04 09:30S 25°58' E 087°47'6 1.2 1018.4 23.4
2016-Dec-04 04:40S 25°53' E 087°45'3 0.9 1020.1 23.2
2016-Dec-04 01:30S 25°50' E 087°45'2 1.8 1019.9 23.0
2016-Dec-04 00:30S 25°48' E 087°45'1 1.4 1019.9 23.0
2016-Dec-03 23:40S 25°47' E 087°45'1 1.1 1019.4 23.0
2016-Dec-03 22:30S 25°46' E 087°44'0 0.0 1019.0 23.0
2016-Dec-03 21:30S 25°46' E 087°44'0 0.0 1018.8 23.0
2016-Dec-03 20:40S 25°46' E 087°44'5 1.8 1018.9 23.1
2016-Dec-03 17:40S 25°40' E 087°45'2 0.6 1020.2 23.1
2016-Dec-03 13:30S 25°38' E 087°45'1 1.6 1018.7 23.2
2016-Dec-03 12:40S 25°37' E 087°46'1 0.6 1018.3 23.2
2016-Dec-03 11:40S 25°36' E 087°46'1 0.7 1018.0 23.4
2016-Dec-03 09:40S 25°35' E 087°46'2 1.6 1018.0 23.4
2016-Dec-03 08:40S 25°34' E 087°47'2 0.5 1018.5 23.6
2016-Dec-03 04:40S 25°32' E 087°49'1 0.3 1019.7 23.2
2016-Dec-03 02:40S 25°32' E 087°49'1 0.8 1019.7 22.9
2016-Dec-03 01:40S 25°31' E 087°49'2 1.9 1019.5 22.9
2016-Dec-03 00:40S 25°29' E 087°49'1 0.2 1019.3 22.9
2016-Dec-02 21:40S 25°29' E 087°49'5 0.8 1018.1 22.9
2016-Dec-02 15:40S 25°24' E 087°50'0 0.0 1019.3 23.2
2016-Dec-02 14:40S 25°24' E 087°50'1 1.3 1018.8 23.2
2016-Dec-02 13:40S 25°23' E 087°50'1 0.7 1018.4 23.2
2016-Dec-02 11:40S 25°22' E 087°51'0 0.0 1017.5 23.4
2016-Dec-02 10:40S 25°22' E 087°51'1 1.1 1017.4 23.6
2016-Dec-02 09:30S 25°20' E 087°52'0 0.0 1017.1 23.6
2016-Dec-02 08:40S 25°20' E 087°52'2 0.4 1017.6 23.6
2016-Dec-02 04:40S 25°20' E 087°53'1 0.4 1019.2 24.0
2016-Dec-02 01:40S 25°19' E 087°53'1 1.2 1019.4 22.8
2016-Dec-02 00:40S 25°18' E 087°53'0 0.0 1019.0 22.8
2016-Dec-01 23:40S 25°18' E 087°53'2 0.9 1018.7 22.8
2016-Dec-01 21:40S 25°16' E 087°54'2 0.4 1018.5 22.8
2016-Dec-01 16:40S 25°14' E 087°55'0 0.0 1020.0 23.0
2016-Dec-01 15:40S 25°14' E 087°55'1 0.7 1019.9 23.2
2016-Dec-01 14:30S 25°14' E 087°54'2 0.9 1019.5 23.2
2016-Dec-01 12:30S 25°12' E 087°55'1 0.7 1018.5 23.6
2016-Dec-01 10:40S 25°11' E 087°55'6 0.7 1017.8 24.0
2016-Dec-01 01:30S 25°05' E 087°58'1 0.7 1020.4 22.6
2016-Nov-30 23:40S 25°04' E 087°59'2 1.1 1019.8 22.6
2016-Nov-30 21:40S 25°02' E 088°00'2 0.8 1019.1 22.6
2016-Nov-30 18:40S 25°01' E 088°02'4 0.7 1020.1 22.7
2016-Nov-30 12:40S 24°57' E 088°04'0 0.0 1019.9 22.9
2016-Nov-30 11:40S 24°57' E 088°04'2 2.4 1019.6 22.9
2016-Nov-30 10:40S 24°55' E 088°06'3 1.5 1019.4 22.9
2016-Nov-30 08:40S 24°53' E 088°08'0 0.0 1019.7 23.0
2016-Nov-30 04:40S 24°53' E 088°08'3 0.9 1020.6 22.7
2016-Nov-30 01:40S 24°50' E 088°09'0 0.0 1020.5 22.5
2016-Nov-30 00:40S 24°50' E 088°09'1 0.7 1020.1 22.5
2016-Nov-29 22:40S 24°49' E 088°10'0 0.0 1019.2 22.5
2016-Nov-29 21:40S 24°49' E 088°10'4 1.2 1019.3 22.5
2016-Nov-29 18:40S 24°46' E 088°12'1 0.6 1020.7 22.5
2016-Nov-29 16:40S 24°46' E 088°13'0 0.0 1021.5 22.5
2016-Nov-29 15:30S 24°46' E 088°13'0 0.0 1021.4 22.5
2016-Nov-29 14:40S 24°46' E 088°13'2 1.2 1020.9 22.5
2016-Nov-29 12:40S 24°44' E 088°16'0 0.0 1019.9 22.7
2016-Nov-29 11:40S 24°44' E 088°16'1 0.8 1019.6 22.8
2016-Nov-29 10:40S 24°44' E 088°16'2 0.8 1019.3 22.8
2016-Nov-29 08:40S 24°44' E 088°18'0 0.0 1019.8 22.8
2016-Nov-29 07:40S 24°44' E 088°18'0 0.0 1020.1 22.8
2016-Nov-29 06:40S 24°44' E 088°18'2 0.8 1020.5 22.7
2016-Nov-29 04:40S 24°44' E 088°20'2 0.4 1021.7 22.6
2016-Nov-29 00:40S 24°43' E 088°22'0 0.0 1021.4 22.4
2016-Nov-28 23:30S 24°43' E 088°22'1 1.4 1020.9 22.4
2016-Nov-28 22:40S 24°42' E 088°22'0 0.0 1020.4 22.4
2016-Nov-28 21:40S 24°42' E 088°22'   1020.1 22.4
Track history (hours):
 
Tides and Currents Weather Stations Pressure Air Temp Water Temp Dewpoint Dewpoint Depression Visibility Wind Speed Wind Dir Waves Ship Positions

Drifting buoy 56564

Last reported at 2016-Dec-08 21:40 UTC. Time now 2016-Dec-09 00:08 UTC.
Position S 27°11' E 088°14'.

Barometer 1018.2 mb
Water temperature 22.9 ° C

Date/timePositionNaut miles runAvg speedWind from/ knotsBaromVisibWave heightAir tempDewpointWater temp
2016-Dec-08 21:40S 27°11' E 088°14'5 1.2 1018.2 22.9
2016-Dec-08 17:40S 27°10' E 088°20'0 0.0 1019.7 23.6
2016-Dec-08 16:40S 27°10' E 088°20'1 0.8 1020.2 23.7
2016-Dec-08 15:40S 27°11' E 088°19'2 1.4 1020.2 23.9
2016-Dec-08 14:30S 27°11' E 088°21'0 0.0 1020.0 24.0
2016-Dec-08 12:40S 27°11' E 088°21'4 1.1 1019.2 24.2
2016-Dec-08 08:40S 27°08' E 088°25'0 0.0 1018.5 25.1
2016-Dec-08 06:40S 27°08' E 088°25'1 0.3 1019.1 24.3
2016-Dec-08 04:40S 27°08' E 088°25'3 1.1 1019.8 23.3
2016-Dec-08 01:40S 27°05' E 088°28'2 1.6 1019.9 22.8
2016-Dec-08 00:40S 27°04' E 088°29'1 0.2 1019.8 22.8
2016-Dec-07 21:40S 27°04' E 088°29'2 2.2 1018.8 22.9
2016-Dec-07 20:40S 27°04' E 088°32'2 1.0 1018.7 22.9
2016-Dec-07 18:40S 27°02' E 088°34'1 0.2 1019.5 23.0
2016-Dec-07 15:40S 27°02' E 088°33'1 0.8 1020.3 23.2
2016-Dec-07 14:40S 27°02' E 088°34'0 0.0 1020.0 23.3
2016-Dec-07 12:40S 27°02' E 088°34'1 0.5 1019.4 23.6
2016-Dec-07 11:30S 27°01' E 088°34'4 2.3 1019.0 23.7
2016-Dec-07 09:40S 26°57' E 088°34'1 0.3 1018.6 23.7
2016-Dec-07 07:40S 26°58' E 088°34'4 4.2 1019.3 23.4
2016-Dec-07 06:40S 26°53' E 088°34'2 0.3 1019.6 23.2
2016-Dec-06 22:40S 26°51' E 088°34'4 1.8 1019.5 22.8
2016-Dec-06 20:30S 26°47' E 088°32'2 1.3 1019.1 22.9
2016-Dec-06 18:40S 26°45' E 088°32'1 0.3 1019.8 22.9
2016-Dec-06 16:40S 26°44' E 088°32'0 0.0 1020.5 22.9
2016-Dec-06 15:40S 26°44' E 088°32'2 1.6 1020.3 23.0
2016-Dec-06 14:40S 26°43' E 088°31'0 0.0 1020.0 23.1
2016-Dec-06 13:40S 26°43' E 088°31'3 1.2 1019.6 23.1
2016-Dec-06 11:30S 26°41' E 088°30'2 1.9 1018.7 23.2
2016-Dec-06 10:40S 26°40' E 088°29'1 0.8 1018.4 23.2
2016-Dec-06 09:40S 26°39' E 088°28'8 1.3 1018.6 23.2
2016-Dec-06 03:40S 26°32' E 088°23'2 0.5 1020.9 22.9
2016-Dec-06 00:40S 26°31' E 088°22'10 1.3 1020.5 22.9
2016-Dec-05 16:40S 26°25' E 088°13'5 1.3 1021.7 23.2
2016-Dec-05 12:40S 26°22' E 088°08'2 2.1 1019.7 23.3
2016-Dec-05 11:40S 26°20' E 088°07'2 1.4 1019.2 23.3
2016-Dec-05 10:30S 26°19' E 088°06'1 1.3 1019.2 23.4
2016-Dec-05 09:40S 26°19' E 088°07'7 1.2 1019.3 23.4
2016-Dec-05 03:40S 26°14' E 088°01'3 1.1 1021.1 23.2
2016-Dec-05 00:40S 26°12' E 087°58'6 6.4 1020.4 23.2
2016-Dec-04 23:40S 26°07' E 087°53'0 0.0 1020.0 23.2
2016-Dec-04 20:40S 26°07' E 087°53'3 0.8 1019.4 23.3
2016-Dec-04 16:40S 26°05' E 087°51'2 1.6 1021.1 23.3
2016-Dec-04 15:40S 26°04' E 087°50'0 0.0 1021.0 23.3
2016-Dec-04 14:40S 26°04' E 087°50'1 0.8 1020.5 23.4
2016-Dec-04 13:40S 26°03' E 087°49'2 1.6 1019.9 23.4
2016-Dec-04 12:40S 26°02' E 087°48'4 1.2 1019.3 23.4
2016-Dec-04 09:30S 25°58' E 087°47'6 1.2 1018.4 23.4
2016-Dec-04 04:40S 25°53' E 087°45'3 0.9 1020.1 23.2
2016-Dec-04 01:30S 25°50' E 087°45'2 1.8 1019.9 23.0
2016-Dec-04 00:30S 25°48' E 087°45'1 1.4 1019.9 23.0
2016-Dec-03 23:40S 25°47' E 087°45'1 1.1 1019.4 23.0
2016-Dec-03 22:30S 25°46' E 087°44'0 0.0 1019.0 23.0
2016-Dec-03 21:30S 25°46' E 087°44'0 0.0 1018.8 23.0
2016-Dec-03 20:40S 25°46' E 087°44'5 1.8 1018.9 23.1
2016-Dec-03 17:40S 25°40' E 087°45'2 0.6 1020.2 23.1
2016-Dec-03 13:30S 25°38' E 087°45'1 1.6 1018.7 23.2
2016-Dec-03 12:40S 25°37' E 087°46'1 0.6 1018.3 23.2
2016-Dec-03 11:40S 25°36' E 087°46'1 0.7 1018.0 23.4
2016-Dec-03 09:40S 25°35' E 087°46'2 1.6 1018.0 23.4
2016-Dec-03 08:40S 25°34' E 087°47'2 0.5 1018.5 23.6
2016-Dec-03 04:40S 25°32' E 087°49'1 0.3 1019.7 23.2
2016-Dec-03 02:40S 25°32' E 087°49'1 0.8 1019.7 22.9
2016-Dec-03 01:40S 25°31' E 087°49'2 1.9 1019.5 22.9
2016-Dec-03 00:40S 25°29' E 087°49'1 0.2 1019.3 22.9
2016-Dec-02 21:40S 25°29' E 087°49'5 0.8 1018.1 22.9
2016-Dec-02 15:40S 25°24' E 087°50'0 0.0 1019.3 23.2
2016-Dec-02 14:40S 25°24' E 087°50'1 1.3 1018.8 23.2
2016-Dec-02 13:40S 25°23' E 087°50'1 0.7 1018.4 23.2
2016-Dec-02 11:40S 25°22' E 087°51'0 0.0 1017.5 23.4
2016-Dec-02 10:40S 25°22' E 087°51'1 1.1 1017.4 23.6
2016-Dec-02 09:30S 25°20' E 087°52'0 0.0 1017.1 23.6
2016-Dec-02 08:40S 25°20' E 087°52'2 0.4 1017.6 23.6
2016-Dec-02 04:40S 25°20' E 087°53'1 0.4 1019.2 24.0
2016-Dec-02 01:40S 25°19' E 087°53'1 1.2 1019.4 22.8
2016-Dec-02 00:40S 25°18' E 087°53'0 0.0 1019.0 22.8
2016-Dec-01 23:40S 25°18' E 087°53'2 0.9 1018.7 22.8
2016-Dec-01 21:40S 25°16' E 087°54'2 0.4 1018.5 22.8
2016-Dec-01 16:40S 25°14' E 087°55'0 0.0 1020.0 23.0
2016-Dec-01 15:40S 25°14' E 087°55'1 0.7 1019.9 23.2
2016-Dec-01 14:30S 25°14' E 087°54'2 0.9 1019.5 23.2
2016-Dec-01 12:30S 25°12' E 087°55'1 0.7 1018.5 23.6
2016-Dec-01 10:40S 25°11' E 087°55'6 0.7 1017.8 24.0
2016-Dec-01 01:30S 25°05' E 087°58'1 0.7 1020.4 22.6
2016-Nov-30 23:40S 25°04' E 087°59'2 1.1 1019.8 22.6
2016-Nov-30 21:40S 25°02' E 088°00'2 0.8 1019.1 22.6
2016-Nov-30 18:40S 25°01' E 088°02'4 0.7 1020.1 22.7
2016-Nov-30 12:40S 24°57' E 088°04'0 0.0 1019.9 22.9
2016-Nov-30 11:40S 24°57' E 088°04'2 2.4 1019.6 22.9
2016-Nov-30 10:40S 24°55' E 088°06'3 1.5 1019.4 22.9
2016-Nov-30 08:40S 24°53' E 088°08'0 0.0 1019.7 23.0
2016-Nov-30 04:40S 24°53' E 088°08'3 0.9 1020.6 22.7
2016-Nov-30 01:40S 24°50' E 088°09'0 0.0 1020.5 22.5
2016-Nov-30 00:40S 24°50' E 088°09'1 0.7 1020.1 22.5
2016-Nov-29 22:40S 24°49' E 088°10'0 0.0 1019.2 22.5
2016-Nov-29 21:40S 24°49' E 088°10'4 1.2 1019.3 22.5
2016-Nov-29 18:40S 24°46' E 088°12'1 0.6 1020.7 22.5
2016-Nov-29 16:40S 24°46' E 088°13'0 0.0 1021.5 22.5
2016-Nov-29 15:30S 24°46' E 088°13'0 0.0 1021.4 22.5
2016-Nov-29 14:40S 24°46' E 088°13'2 1.2 1020.9 22.5
2016-Nov-29 12:40S 24°44' E 088°16'0 0.0 1019.9 22.7
2016-Nov-29 11:40S 24°44' E 088°16'1 0.8 1019.6 22.8
2016-Nov-29 10:40S 24°44' E 088°16'2 0.8 1019.3 22.8
2016-Nov-29 08:40S 24°44' E 088°18'0 0.0 1019.8 22.8
2016-Nov-29 07:40S 24°44' E 088°18'0 0.0 1020.1 22.8
2016-Nov-29 06:40S 24°44' E 088°18'2 0.8 1020.5 22.7
2016-Nov-29 04:40S 24°44' E 088°20'2 0.4 1021.7 22.6
2016-Nov-29 00:40S 24°43' E 088°22'0 0.0 1021.4 22.4
2016-Nov-28 23:30S 24°43' E 088°22'1 1.4 1020.9 22.4
2016-Nov-28 22:40S 24°42' E 088°22'0 0.0 1020.4 22.4
2016-Nov-28 21:40S 24°42' E 088°22'   1020.1 22.4

Dump ship's entire track history